Terminal Aerodrome Forecast
Issued by NWS

Home | Current Version | Previous Version | Text Only | Print | Product List | Glossary On
Versions: 1 2 3 4 5 6 7 8 9 10 11 12 13 14 15 16 17 18 19 20
000
FTUS42 KTBW 170200 AAA
TAFRSW
TAF AMD
KRSW 170225Z 1702/1724 07010KT P6SM SCT025 BKN040
      TEMPO 1702/1704 BKN025
     FM170800 05008KT P6SM VCSH SCT008 BKN015
     FM171500 07012G18KT P6SM VCSH SCT020 BKN035
     FM171800 07012G18KT P6SM VCSH SCT030 BKN050=

USA.gov is the U.S. government's official web portal to all federal, state and local government web resources and services.